createdAt,value
2022-12-03T00:00:12.405Z,10.93
2022-12-03T00:02:41.683Z,9.63
2022-12-03T00:05:10.161Z,9.55
2022-12-03T00:07:37.928Z,9.38
2022-12-03T00:10:09.551Z,10.80
2022-12-03T00:12:37.515Z,9.38
2022-12-03T00:15:07.401Z,9.75
2022-12-03T00:17:35.221Z,10.18
2022-12-03T00:20:03.142Z,10.68
2022-12-03T00:22:30.716Z,10.88
2022-12-03T00:24:58.528Z,10.07
2022-12-03T00:27:27.727Z,9.32
2022-12-03T00:29:55.533Z,9.25
2022-12-03T00:32:23.129Z,10.63
2022-12-03T00:34:51.260Z,9.15
2022-12-03T00:37:19.261Z,9.23
2022-12-03T00:39:47.029Z,11.23
2022-12-03T00:42:14.769Z,11.07
2022-12-03T00:44:43.201Z,11.07
2022-12-03T00:47:11.140Z,11.38
2022-12-03T00:49:39.034Z,10.75
2022-12-03T00:52:06.995Z,10.60
2022-12-03T00:54:34.921Z,10.80
2022-12-03T00:57:03.003Z,9.43
2022-12-03T00:59:30.917Z,9.48
2022-12-03T01:01:58.814Z,11.55
2022-12-03T01:04:26.792Z,12.25
2022-12-03T01:06:54.624Z,11.77
2022-12-03T01:09:22.658Z,10.52
2022-12-03T01:11:50.474Z,10.60
2022-12-03T01:14:19.593Z,10.98
2022-12-03T01:16:48.245Z,11.32
2022-12-03T01:19:16.564Z,11.27
2022-12-03T01:21:49.451Z,11.13
2022-12-03T01:24:18.574Z,11.23
2022-12-03T01:26:46.516Z,11.38
2022-12-03T01:29:15.532Z,11.52
2022-12-03T01:32:02.115Z,11.63
2022-12-03T01:34:30.116Z,10.32
2022-12-03T01:36:57.908Z,10.60
2022-12-03T01:39:25.583Z,11.35
2022-12-03T01:41:53.974Z,10.00
2022-12-03T01:44:26.540Z,9.85
2022-12-03T01:46:56.789Z,10.15
2022-12-03T01:49:27.489Z,10.05
2022-12-03T01:51:56.021Z,8.75
2022-12-03T01:54:37.384Z,10.18
2022-12-03T01:57:06.114Z,9.40
2022-12-03T01:59:38.458Z,10.85
2022-12-03T02:02:22.797Z,10.02
2022-12-03T02:04:52.378Z,8.88
2022-12-03T02:07:21.996Z,9.40
2022-12-03T02:09:49.897Z,9.18
2022-12-03T02:12:22.894Z,7.85
2022-12-03T02:14:51.025Z,8.65
2022-12-03T02:17:19.123Z,8.57
2022-12-03T02:19:47.596Z,9.07
2022-12-03T02:22:37.860Z,9.60
2022-12-03T02:25:26.667Z,10.02
2022-12-03T02:27:55.902Z,8.93
2022-12-03T02:30:25.167Z,8.73
2022-12-03T02:32:54.105Z,9.32
2022-12-03T02:35:24.831Z,9.85
2022-12-03T02:38:01.624Z,9.88
2022-12-03T02:40:32.406Z,7.97
2022-12-03T02:43:02.371Z,8.52
2022-12-03T02:45:33.112Z,9.57
2022-12-03T02:48:21.557Z,8.43
2022-12-03T02:51:09.686Z,10.27
2022-12-03T02:53:42.578Z,8.38
2022-12-03T02:56:14.350Z,9.57
2022-12-03T02:58:43.492Z,10.80
2022-12-03T03:01:12.146Z,8.80
2022-12-03T03:03:40.156Z,8.48
2022-12-03T03:06:08.926Z,9.50
2022-12-03T03:08:38.325Z,9.05
2022-12-03T03:11:06.283Z,9.02
2022-12-03T03:13:34.858Z,8.88
2022-12-03T03:16:07.228Z,9.18
2022-12-03T03:18:35.891Z,8.55
2022-12-03T03:21:04.629Z,8.70
2022-12-03T03:23:32.535Z,7.65
2022-12-03T03:26:03.779Z,8.57
2022-12-03T03:28:31.904Z,8.48
2022-12-03T03:31:01.982Z,8.68
2022-12-03T03:33:31.237Z,9.38
2022-12-03T03:36:00.827Z,7.53
2022-12-03T03:38:29.562Z,8.50
2022-12-03T03:40:58.183Z,8.35
2022-12-03T03:43:26.220Z,8.20
2022-12-03T03:45:55.141Z,7.55
2022-12-03T03:48:23.427Z,7.15
2022-12-03T03:50:51.891Z,7.30
2022-12-03T03:53:20.837Z,8.93
2022-12-03T03:55:48.766Z,7.55
2022-12-03T03:58:17.513Z,7.40
2022-12-03T04:00:46.223Z,7.50
2022-12-03T04:03:14.501Z,6.65
2022-12-03T04:05:42.625Z,8.82
2022-12-03T04:08:10.556Z,8.85
2022-12-03T04:10:57.074Z,7.60
2022-12-03T04:13:24.939Z,7.47
2022-12-03T04:15:52.835Z,8.35
2022-12-03T04:18:39.082Z,7.53
2022-12-03T04:21:25.695Z,6.38
2022-12-03T04:23:53.418Z,7.43
2022-12-03T04:26:40.003Z,8.60
2022-12-03T04:29:07.962Z,7.00
2022-12-03T04:31:54.593Z,7.40
2022-12-03T04:34:41.258Z,7.78
2022-12-03T04:37:09.347Z,6.95
2022-12-03T04:39:37.600Z,8.18
2022-12-03T04:42:06.490Z,8.20
2022-12-03T04:44:37.311Z,7.97
2022-12-03T04:47:11.581Z,7.68
2022-12-03T04:49:42.118Z,7.38
2022-12-03T04:52:11.130Z,8.00
2022-12-03T04:54:39.384Z,8.45
2022-12-03T04:57:08.525Z,10.02
2022-12-03T04:59:37.223Z,8.82
2022-12-03T05:02:06.126Z,8.50
2022-12-03T05:04:34.381Z,8.45
2022-12-03T05:07:02.264Z,8.18
2022-12-03T05:09:30.208Z,8.52
2022-12-03T05:11:58.150Z,8.65
2022-12-03T05:14:25.897Z,9.63
2022-12-03T05:16:53.764Z,8.88
2022-12-03T05:19:21.630Z,9.85
2022-12-03T05:21:49.301Z,8.38
2022-12-03T05:24:16.959Z,9.88
2022-12-03T05:26:44.833Z,9.52
2022-12-03T05:29:12.559Z,9.63
2022-12-03T05:31:40.330Z,9.40
2022-12-03T05:34:08.135Z,8.73
2022-12-03T05:36:35.869Z,8.77
2022-12-03T05:39:03.679Z,9.82
2022-12-03T05:41:49.882Z,7.88
2022-12-03T05:44:20.577Z,8.98
2022-12-03T05:46:48.768Z,9.77
2022-12-03T05:49:16.538Z,8.20
2022-12-03T05:51:44.304Z,9.02
2022-12-03T05:54:12.183Z,9.05
2022-12-03T05:56:39.958Z,8.68
2022-12-03T05:59:07.669Z,9.20
2022-12-03T06:01:35.485Z,9.43
2022-12-03T06:04:03.326Z,8.45
2022-12-03T06:06:31.304Z,7.70
2022-12-03T06:08:59.223Z,10.82
2022-12-03T06:11:30.123Z,10.90
2022-12-03T06:13:58.015Z,10.63
2022-12-03T06:16:25.744Z,13.55
2022-12-03T06:18:53.511Z,13.13
2022-12-03T06:21:21.515Z,13.23
2022-12-03T06:23:49.398Z,12.98
2022-12-03T06:26:17.340Z,13.02
2022-12-03T06:28:46.661Z,12.70
2022-12-03T06:31:15.204Z,13.90
2022-12-03T06:33:43.081Z,13.88
2022-12-03T06:36:10.987Z,13.98
2022-12-03T06:38:38.919Z,13.20
2022-12-03T06:41:07.014Z,13.65
2022-12-03T06:43:34.777Z,12.00
2022-12-03T06:46:03.014Z,12.88
2022-12-03T06:48:30.840Z,12.25
2022-12-03T06:50:58.635Z,12.18
2022-12-03T06:53:26.490Z,11.98
2022-12-03T06:55:54.334Z,12.80
2022-12-03T06:58:22.516Z,13.05
2022-12-03T07:00:50.407Z,11.23
2022-12-03T07:03:18.331Z,13.32
2022-12-03T07:05:46.204Z,12.45
2022-12-03T07:08:14.277Z,13.05
2022-12-03T07:10:42.078Z,11.32
2022-12-03T07:13:09.784Z,10.75
2022-12-03T07:15:37.452Z,13.68
2022-12-03T07:18:05.585Z,13.70
2022-12-03T07:20:33.377Z,14.07
2022-12-03T07:23:01.203Z,13.40
2022-12-03T07:25:29.298Z,14.55
2022-12-03T07:27:57.239Z,14.57
2022-12-03T07:30:25.935Z,15.27
2022-12-03T07:32:54.470Z,14.00
2022-12-03T07:35:22.647Z,14.85
2022-12-03T07:37:50.625Z,15.10
2022-12-03T07:40:18.603Z,14.32
2022-12-03T07:42:46.463Z,17.40
2022-12-03T07:45:14.530Z,15.35
2022-12-03T07:47:42.383Z,15.13
2022-12-03T07:50:11.835Z,15.18
2022-12-03T07:52:40.056Z,14.43
2022-12-03T07:55:08.397Z,13.43
2022-12-03T07:57:36.254Z,14.27
2022-12-03T08:00:06.225Z,15.10
2022-12-03T08:02:34.102Z,12.82
2022-12-03T08:05:02.088Z,13.77
2022-12-03T08:07:30.031Z,14.48
2022-12-03T08:09:58.270Z,14.95
2022-12-03T08:12:40.354Z,13.90
2022-12-03T08:15:18.677Z,14.48
2022-12-03T08:17:48.464Z,14.65
2022-12-03T08:20:18.920Z,14.50
2022-12-03T08:22:48.783Z,13.50
2022-12-03T08:25:27.838Z,14.50
2022-12-03T08:28:01.221Z,15.70
2022-12-03T08:30:30.610Z,14.27
2022-12-03T08:32:59.122Z,13.57
2022-12-03T08:35:29.944Z,16.02
2022-12-03T08:38:10.397Z,15.80
2022-12-03T08:40:43.082Z,13.40
2022-12-03T08:43:22.312Z,13.60
2022-12-03T08:45:51.290Z,14.27
2022-12-03T08:48:51.487Z,12.52
2022-12-03T08:51:20.755Z,14.15
2022-12-03T08:54:01.867Z,13.48
2022-12-03T08:56:32.241Z,13.45
2022-12-03T08:59:19.929Z,15.25
2022-12-03T09:01:48.299Z,13.80
2022-12-03T09:04:20.936Z,14.07
2022-12-03T09:06:48.772Z,13.18
2022-12-03T09:09:17.122Z,12.57
2022-12-03T09:11:45.198Z,14.15
2022-12-03T09:14:18.348Z,15.32
2022-12-03T09:16:47.000Z,14.88
2022-12-03T09:19:14.933Z,14.00
2022-12-03T09:21:42.765Z,13.80
2022-12-03T09:24:10.543Z,14.70
2022-12-03T09:26:38.414Z,14.85
2022-12-03T09:29:11.686Z,15.15
2022-12-03T09:31:40.210Z,14.57
2022-12-03T09:34:08.110Z,14.25
2022-12-03T09:36:36.059Z,13.02
2022-12-03T09:39:05.028Z,17.15
2022-12-03T09:41:32.930Z,16.15
2022-12-03T09:44:05.436Z,14.15
2022-12-03T09:46:35.524Z,13.15
2022-12-03T09:49:04.418Z,14.35
2022-12-03T09:51:34.894Z,14.80
2022-12-03T09:54:06.655Z,12.93
2022-12-03T09:56:37.776Z,12.88
2022-12-03T09:59:14.915Z,15.60
2022-12-03T10:01:43.716Z,15.63
2022-12-03T10:04:12.064Z,15.02
2022-12-03T10:06:45.540Z,13.80
2022-12-03T10:09:17.480Z,14.25
2022-12-03T10:11:45.856Z,14.82
2022-12-03T10:14:15.528Z,15.45
2022-12-03T10:16:43.614Z,15.95
2022-12-03T10:19:25.824Z,14.68
2022-12-03T10:21:53.793Z,14.95
2022-12-03T10:24:23.135Z,14.95
2022-12-03T10:26:53.289Z,15.25
2022-12-03T10:29:32.871Z,14.65
2022-12-03T10:32:10.250Z,14.73
2022-12-03T10:34:40.382Z,16.23
2022-12-03T10:37:18.147Z,15.48
2022-12-03T10:40:01.954Z,15.80
2022-12-03T10:42:32.178Z,16.58
2022-12-03T10:45:15.710Z,15.20
2022-12-03T10:47:45.136Z,15.98
2022-12-03T10:50:20.331Z,15.20
2022-12-03T10:52:48.464Z,13.68
2022-12-03T10:55:17.184Z,17.38
2022-12-03T10:57:46.370Z,16.25
2022-12-03T11:00:19.344Z,16.42
2022-12-03T11:02:56.084Z,15.23
2022-12-03T11:05:27.742Z,16.90
2022-12-03T11:07:56.083Z,17.63
2022-12-03T11:10:24.253Z,14.82
2022-12-03T11:13:30.962Z,14.40
2022-12-03T11:15:59.574Z,17.75
2022-12-03T11:18:39.983Z,17.38
2022-12-03T11:21:10.355Z,15.18
2022-12-03T11:23:47.411Z,16.23
2022-12-03T11:26:30.501Z,18.30
2022-12-03T11:28:59.158Z,16.48
2022-12-03T11:31:46.928Z,15.15
2022-12-03T11:34:20.946Z,15.10
2022-12-03T11:37:10.606Z,16.45
2022-12-03T11:39:53.446Z,16.15
2022-12-03T11:42:27.131Z,16.60
2022-12-03T11:45:04.038Z,17.88
2022-12-03T11:47:42.563Z,16.65
2022-12-03T11:50:33.644Z,17.08
2022-12-03T11:53:27.081Z,16.00
2022-12-03T11:56:11.029Z,16.02
2022-12-03T11:58:41.937Z,16.58
2022-12-03T12:01:10.398Z,16.30
2022-12-03T12:03:44.629Z,16.60
2022-12-03T12:06:13.759Z,16.63
2022-12-03T12:08:52.124Z,15.25
2022-12-03T12:11:34.906Z,14.65
2022-12-03T12:14:04.651Z,15.23
2022-12-03T12:16:50.367Z,15.77
2022-12-03T12:19:34.820Z,15.52
2022-12-03T12:22:29.703Z,15.90
2022-12-03T12:25:23.599Z,17.42
2022-12-03T12:27:53.977Z,15.95
2022-12-03T12:30:23.660Z,16.05
2022-12-03T12:33:10.962Z,15.57
2022-12-03T12:35:38.985Z,15.07
2022-12-03T12:38:11.483Z,14.70
2022-12-03T12:40:45.761Z,15.95
2022-12-03T12:43:26.653Z,14.90
2022-12-03T12:45:57.071Z,15.38
2022-12-03T12:48:35.948Z,15.57
2022-12-03T12:51:30.064Z,15.52
2022-12-03T12:53:58.756Z,16.77
2022-12-03T12:56:26.810Z,15.10
2022-12-03T12:58:55.476Z,18.23
2022-12-03T13:01:30.574Z,15.73
2022-12-03T13:03:59.687Z,14.80
2022-12-03T13:06:29.545Z,16.38
2022-12-03T13:08:58.658Z,18.15
2022-12-03T13:11:34.709Z,17.23
2022-12-03T13:14:22.651Z,14.00
2022-12-03T13:16:51.974Z,15.50
2022-12-03T13:19:31.052Z,16.63
2022-12-03T13:22:03.634Z,15.90
2022-12-03T13:24:45.323Z,16.92
2022-12-03T13:27:21.882Z,15.13
2022-12-03T13:30:16.644Z,15.73
2022-12-03T13:32:44.720Z,15.73
2022-12-03T13:35:36.309Z,16.20
2022-12-03T13:40:38.389Z,15.40
2022-12-03T13:43:12.763Z,15.43
2022-12-03T13:45:45.047Z,15.75
2022-12-03T13:48:35.048Z,16.27
2022-12-03T13:51:27.993Z,15.68
2022-12-03T13:53:56.124Z,15.30
2022-12-03T13:56:31.079Z,17.23
2022-12-03T13:59:00.704Z,15.45
2022-12-03T14:01:28.852Z,16.65
2022-12-03T14:03:57.353Z,14.60
2022-12-03T14:06:25.538Z,13.13
2022-12-03T14:08:53.367Z,14.85
2022-12-03T14:11:39.429Z,14.05
2022-12-03T14:14:07.300Z,14.15
2022-12-03T14:16:35.133Z,14.18
2022-12-03T14:19:03.271Z,15.25
2022-12-03T14:21:31.115Z,16.38
2022-12-03T14:23:58.954Z,15.85
2022-12-03T14:26:27.040Z,14.40
2022-12-03T14:28:55.054Z,17.25
2022-12-03T14:31:22.985Z,15.77
2022-12-03T14:33:51.256Z,15.07
2022-12-03T14:36:21.597Z,14.35
2022-12-03T14:38:49.461Z,13.38
2022-12-03T14:41:35.598Z,14.27
2022-12-03T14:44:03.466Z,15.57
2022-12-03T14:46:33.864Z,15.55
2022-12-03T14:49:01.687Z,16.50
2022-12-03T14:51:29.656Z,16.55
2022-12-03T14:53:57.494Z,15.50
2022-12-03T14:56:25.430Z,16.27
2022-12-03T14:58:53.251Z,16.27
2022-12-03T15:01:21.131Z,15.13
2022-12-03T15:03:49.127Z,15.20
2022-12-03T15:06:17.054Z,15.25
2022-12-03T15:08:45.212Z,15.20
2022-12-03T15:11:13.007Z,15.68
2022-12-03T15:13:40.875Z,14.93
2022-12-03T15:16:08.991Z,16.48
2022-12-03T15:18:36.949Z,16.58
2022-12-03T15:21:04.745Z,14.80
2022-12-03T15:23:37.399Z,16.35
2022-12-03T15:26:06.061Z,15.50
2022-12-03T15:28:34.180Z,15.18
2022-12-03T15:31:02.342Z,14.18
2022-12-03T15:33:30.318Z,13.38
2022-12-03T15:35:58.311Z,15.10
2022-12-03T15:38:26.195Z,14.55
2022-12-03T15:40:54.034Z,17.50
2022-12-03T15:43:21.926Z,15.98
2022-12-03T15:45:49.773Z,14.48
2022-12-03T15:48:17.707Z,14.75
2022-12-03T15:50:45.980Z,15.45
2022-12-03T15:53:13.884Z,17.23
2022-12-03T15:55:41.772Z,17.00
2022-12-03T15:58:09.407Z,15.05
2022-12-03T16:00:37.182Z,15.55
2022-12-03T16:03:05.039Z,14.32
2022-12-03T16:05:32.790Z,15.75
2022-12-03T16:08:00.705Z,16.00
2022-12-03T16:10:28.690Z,15.38
2022-12-03T16:12:56.714Z,16.88
2022-12-03T16:15:27.252Z,16.77
2022-12-03T16:17:55.550Z,13.52
2022-12-03T16:20:23.399Z,17.05
2022-12-03T16:22:52.233Z,15.98
2022-12-03T16:25:20.073Z,16.92
2022-12-03T16:27:47.776Z,16.75
2022-12-03T16:30:15.831Z,15.07
2022-12-03T16:32:43.940Z,15.48
2022-12-03T16:35:11.880Z,14.85
2022-12-03T16:37:39.789Z,14.15
2022-12-03T16:40:08.513Z,16.05
2022-12-03T16:42:37.645Z,17.17
2022-12-03T16:45:09.172Z,15.13
2022-12-03T16:47:37.115Z,15.32
2022-12-03T16:50:11.692Z,16.02
2022-12-03T16:52:43.902Z,13.77
2022-12-03T16:55:11.844Z,16.00
2022-12-03T16:57:39.727Z,15.05
2022-12-03T17:00:08.530Z,16.35
2022-12-03T17:02:36.470Z,14.63
2022-12-03T17:05:04.535Z,16.35
2022-12-03T17:07:32.327Z,15.20
2022-12-03T17:10:00.278Z,13.63
2022-12-03T17:12:42.171Z,17.48
2022-12-03T17:15:16.050Z,15.50
2022-12-03T17:17:44.104Z,15.48
2022-12-03T17:20:13.474Z,14.93
2022-12-03T17:22:41.858Z,15.50
2022-12-03T17:25:10.637Z,15.35
2022-12-03T17:27:44.845Z,15.10
2022-12-03T17:30:14.064Z,15.88
2022-12-03T17:32:42.092Z,16.08
2022-12-03T17:35:11.115Z,15.57
2022-12-03T17:37:40.626Z,14.77
2022-12-03T17:40:10.347Z,14.75
2022-12-03T17:42:38.224Z,16.85
2022-12-03T17:45:08.012Z,15.93
2022-12-03T17:47:36.368Z,14.40
2022-12-03T17:50:04.458Z,16.58
2022-12-03T17:52:32.729Z,16.92
2022-12-03T17:55:26.176Z,14.55
2022-12-03T17:57:48.653Z,13.73
2022-12-03T18:00:16.580Z,15.73
2022-12-03T18:02:44.465Z,15.50
2022-12-03T18:05:13.965Z,14.73
2022-12-03T18:07:42.022Z,14.13
2022-12-03T18:10:10.509Z,14.27
2022-12-03T18:12:38.505Z,15.20
2022-12-03T18:15:06.779Z,16.05
2022-12-03T18:17:34.563Z,15.25
2022-12-03T18:20:02.473Z,15.70
2022-12-03T18:22:30.453Z,16.77
2022-12-03T18:24:58.373Z,13.52
2022-12-03T18:27:26.229Z,15.63
2022-12-03T18:29:54.233Z,15.35
2022-12-03T18:32:30.178Z,14.88
2022-12-03T18:34:58.610Z,15.10
2022-12-03T18:37:30.707Z,14.20
2022-12-03T18:39:59.384Z,16.45
2022-12-03T18:42:27.795Z,15.07
2022-12-03T18:44:57.097Z,15.57
2022-12-03T18:47:29.528Z,14.60
2022-12-03T18:49:58.184Z,15.32
2022-12-03T18:52:26.259Z,16.42
2022-12-03T18:54:55.456Z,17.77
2022-12-03T18:57:23.374Z,15.82
2022-12-03T18:59:52.097Z,16.52
2022-12-03T19:02:54.148Z,14.38
2022-12-03T19:05:12.263Z,17.25
2022-12-03T19:07:40.111Z,15.93
2022-12-03T19:10:09.274Z,15.98
2022-12-03T19:12:37.972Z,15.05
2022-12-03T19:15:06.874Z,15.68
2022-12-03T19:17:34.633Z,15.30
2022-12-03T19:20:04.438Z,14.68
2022-12-03T19:22:32.265Z,16.15
2022-12-03T19:25:00.279Z,15.35
2022-12-03T19:27:31.725Z,14.63
2022-12-03T19:29:59.806Z,14.93
2022-12-03T19:32:27.595Z,15.55
2022-12-03T19:34:55.248Z,15.23
2022-12-03T19:37:23.002Z,15.93
2022-12-03T19:39:54.539Z,16.02
2022-12-03T19:44:50.291Z,15.00
2022-12-03T19:47:18.169Z,15.77
2022-12-03T19:49:45.996Z,15.70
2022-12-03T19:52:13.715Z,15.45
2022-12-03T19:54:41.415Z,16.48
2022-12-03T19:57:09.279Z,14.48
2022-12-03T19:59:37.104Z,16.30
2022-12-03T20:02:05.074Z,13.95
2022-12-03T20:04:33.015Z,14.43
2022-12-03T20:07:00.892Z,16.33
2022-12-03T20:09:28.950Z,16.52
2022-12-03T20:11:56.931Z,14.00
2022-12-03T20:14:25.226Z,13.85
2022-12-03T20:16:53.271Z,15.68
2022-12-03T20:19:21.085Z,16.05
2022-12-03T20:21:48.944Z,14.32
2022-12-03T20:24:18.367Z,14.15
2022-12-03T20:26:46.743Z,16.30
2022-12-03T20:29:14.698Z,15.60
2022-12-03T20:31:42.581Z,14.18
2022-12-03T20:34:11.483Z,15.60
2022-12-03T20:36:40.177Z,14.65
2022-12-03T20:39:08.589Z,14.05
2022-12-03T20:41:37.491Z,15.07
2022-12-03T20:44:07.781Z,14.70
2022-12-03T20:46:36.378Z,12.68
2022-12-03T20:49:04.902Z,15.00
2022-12-03T20:51:33.451Z,14.05
2022-12-03T20:54:02.663Z,14.35
2022-12-03T20:56:39.608Z,14.13
2022-12-03T20:59:10.645Z,14.65
2022-12-03T21:01:39.170Z,14.45
2022-12-03T21:04:07.966Z,14.00
2022-12-03T21:06:37.183Z,12.45
2022-12-03T21:09:07.014Z,13.07
2022-12-03T21:11:36.128Z,15.00
2022-12-03T21:14:04.695Z,14.18
2022-12-03T21:19:24.078Z,14.65
2022-12-03T21:21:51.856Z,13.35
2022-12-03T21:24:19.637Z,14.18
2022-12-03T21:26:47.846Z,15.07
2022-12-03T21:29:16.319Z,15.80
2022-12-03T21:31:44.355Z,14.13
2022-12-03T21:34:12.350Z,14.88
2022-12-03T21:36:40.362Z,13.88
2022-12-03T21:39:08.720Z,15.15
2022-12-03T21:41:36.514Z,15.85
2022-12-03T21:44:04.968Z,17.88
2022-12-03T21:47:09.949Z,15.20
2022-12-03T21:49:20.646Z,13.70
2022-12-03T21:51:48.850Z,15.43
2022-12-03T21:54:16.969Z,12.88
2022-12-03T21:56:44.866Z,14.93
2022-12-03T21:59:12.686Z,14.13
2022-12-03T22:01:45.543Z,14.93
2022-12-03T22:04:14.932Z,13.73
2022-12-03T22:06:43.117Z,13.55
2022-12-03T22:09:10.995Z,14.80
2022-12-03T22:11:39.006Z,13.30
2022-12-03T22:14:08.398Z,14.95
2022-12-03T22:16:36.492Z,15.20
2022-12-03T22:19:04.721Z,14.10
2022-12-03T22:21:32.585Z,12.82
2022-12-03T22:24:00.358Z,14.05
2022-12-03T22:26:28.292Z,12.35
2022-12-03T22:28:56.094Z,14.10
2022-12-03T22:31:24.079Z,14.23
2022-12-03T22:33:51.901Z,13.65
2022-12-03T22:36:21.753Z,13.88
2022-12-03T22:38:50.874Z,12.60
2022-12-03T22:41:19.602Z,13.50
2022-12-03T22:43:48.347Z,13.32
2022-12-03T22:46:16.797Z,13.82
2022-12-03T22:48:48.405Z,13.32
2022-12-03T22:51:21.803Z,14.68
2022-12-03T22:53:56.492Z,15.15
2022-12-03T22:56:25.139Z,14.35
2022-12-03T22:58:53.040Z,14.10
2022-12-03T23:01:32.685Z,14.05
2022-12-03T23:04:00.733Z,14.48
2022-12-03T23:06:29.976Z,12.90
2022-12-03T23:08:58.655Z,14.57
2022-12-03T23:11:27.317Z,13.20
2022-12-03T23:13:55.377Z,13.18
2022-12-03T23:16:26.481Z,14.38
2022-12-03T23:18:54.549Z,12.75
2022-12-03T23:21:29.983Z,13.52
2022-12-03T23:23:59.367Z,14.43
2022-12-03T23:26:27.584Z,12.75
2022-12-03T23:28:55.547Z,14.20
2022-12-03T23:31:29.814Z,15.43
2022-12-03T23:33:58.791Z,13.45
2022-12-03T23:36:28.395Z,13.38
2022-12-03T23:38:56.262Z,14.25
2022-12-03T23:41:25.113Z,14.52
2022-12-03T23:43:53.074Z,12.73
2022-12-03T23:46:26.283Z,13.77
2022-12-03T23:48:54.234Z,14.15
2022-12-03T23:51:24.599Z,12.48
2022-12-03T23:53:53.376Z,13.63
2022-12-03T23:56:29.828Z,13.55
2022-12-03T23:58:58.570Z,12.60
